sensor_id;sensor_type;location;lat;lon;timestamp;P1;durP1;ratioP1;P2;durP2;ratioP2
12623;SDS011;6377;42.836;23.998;2022-11-15T09:39:28;20.83;;;12.37;;
12623;SDS011;6377;42.836;23.998;2022-11-15T09:42:02;17.00;;;11.30;;
12623;SDS011;6377;42.836;23.998;2022-11-15T09:44:59;15.50;;;10.50;;
12623;SDS011;6377;42.836;23.998;2022-11-15T09:47:39;15.57;;;10.60;;
12623;SDS011;6377;42.836;23.998;2022-11-15T09:50:31;14.03;;;9.23;;
12623;SDS011;6377;42.836;23.998;2022-11-15T09:53:02;12.17;;;9.43;;
12623;SDS011;6377;42.836;23.998;2022-11-15T09:55:35;12.43;;;9.27;;
12623;SDS011;6377;42.836;23.998;2022-11-15T09:58:14;10.97;;;8.40;;
12623;SDS011;6377;42.836;23.998;2022-11-15T10:00:46;9.83;;;7.73;;
12623;SDS011;6377;42.836;23.998;2022-11-15T10:03:20;9.03;;;7.10;;
12623;SDS011;6377;42.836;23.998;2022-11-15T10:05:53;8.90;;;6.83;;
12623;SDS011;6377;42.836;23.998;2022-11-15T10:08:28;10.17;;;7.60;;
12623;SDS011;6377;42.836;23.998;2022-11-15T10:11:06;22.90;;;14.03;;
12623;SDS011;6377;42.836;23.998;2022-11-15T10:13:36;11.50;;;8.50;;
12623;SDS011;6377;42.836;23.998;2022-11-15T10:16:09;8.60;;;6.50;;
12623;SDS011;6377;42.836;23.998;2022-11-15T10:18:50;6.77;;;5.23;;
12623;SDS011;6377;42.836;23.998;2022-11-15T10:21:27;7.87;;;6.03;;
12623;SDS011;6377;42.836;23.998;2022-11-15T10:24:05;8.90;;;6.70;;
12623;SDS011;6377;42.836;23.998;2022-11-15T10:26:39;8.20;;;6.17;;
12623;SDS011;6377;42.836;23.998;2022-11-15T10:29:17;12.73;;;8.33;;
12623;SDS011;6377;42.836;23.998;2022-11-15T10:31:45;8.70;;;6.67;;
12623;SDS011;6377;42.836;23.998;2022-11-15T10:34:13;15.90;;;9.73;;
12623;SDS011;6377;42.836;23.998;2022-11-15T10:36:44;6.63;;;5.93;;
12623;SDS011;6377;42.836;23.998;2022-11-15T10:39:12;7.87;;;5.87;;
12623;SDS011;6377;42.836;23.998;2022-11-15T10:41:42;12.83;;;8.13;;
12623;SDS011;6377;42.836;23.998;2022-11-15T10:44:17;10.23;;;8.10;;
12623;SDS011;6377;42.836;23.998;2022-11-15T10:46:47;8.27;;;6.27;;
12623;SDS011;6377;42.836;23.998;2022-11-15T10:49:30;7.67;;;5.70;;
12623;SDS011;6377;42.836;23.998;2022-11-15T10:51:59;8.37;;;6.03;;
12623;SDS011;6377;42.836;23.998;2022-11-15T10:54:29;6.77;;;5.37;;
12623;SDS011;6377;42.836;23.998;2022-11-15T10:57:05;7.87;;;5.43;;
12623;SDS011;6377;42.836;23.998;2022-11-15T10:59:36;7.40;;;6.10;;
12623;SDS011;6377;42.836;23.998;2022-11-15T11:04:55;8.37;;;6.60;;
12623;SDS011;6377;42.836;23.998;2022-11-15T11:07:22;10.40;;;8.60;;
12623;SDS011;6377;42.836;23.998;2022-11-15T11:09:56;9.70;;;7.83;;
12623;SDS011;6377;42.836;23.998;2022-11-15T11:12:28;8.10;;;5.70;;
12623;SDS011;6377;42.836;23.998;2022-11-15T11:14:58;6.10;;;5.13;;
12623;SDS011;6377;42.836;23.998;2022-11-15T11:17:32;6.90;;;6.10;;
12623;SDS011;6377;42.836;23.998;2022-11-15T11:20:14;7.40;;;6.33;;
12623;SDS011;6377;42.836;23.998;2022-11-15T11:22:53;8.73;;;6.77;;
12623;SDS011;6377;42.836;23.998;2022-11-15T11:25:33;7.43;;;6.63;;
12623;SDS011;6377;42.836;23.998;2022-11-15T11:28:11;6.97;;;6.10;;
12623;SDS011;6377;42.836;23.998;2022-11-15T11:30:52;8.73;;;6.43;;
12623;SDS011;6377;42.836;23.998;2022-11-15T11:33:26;9.40;;;7.20;;
12623;SDS011;6377;42.836;23.998;2022-11-15T11:36:03;6.30;;;5.57;;
12623;SDS011;6377;42.836;23.998;2022-11-15T11:38:41;12.53;;;9.47;;
12623;SDS011;6377;42.836;23.998;2022-11-15T11:41:16;6.37;;;5.40;;
12623;SDS011;6377;42.836;23.998;2022-11-15T11:43:59;8.43;;;5.60;;
12623;SDS011;6377;42.836;23.998;2022-11-15T11:46:41;8.10;;;6.50;;
12623;SDS011;6377;42.836;23.998;2022-11-15T11:49:21;10.87;;;7.70;;
12623;SDS011;6377;42.836;23.998;2022-11-15T11:51:55;16.70;;;10.73;;
12623;SDS011;6377;42.836;23.998;2022-11-15T11:54:31;15.30;;;10.57;;
12623;SDS011;6377;42.836;23.998;2022-11-15T11:57:05;9.80;;;7.17;;
12623;SDS011;6377;42.836;23.998;2022-11-15T11:59:41;11.87;;;8.63;;
12623;SDS011;6377;42.836;23.998;2022-11-15T12:02:15;8.13;;;6.37;;
12623;SDS011;6377;42.836;23.998;2022-11-15T12:04:51;7.87;;;5.97;;
12623;SDS011;6377;42.836;23.998;2022-11-15T12:07:25;12.27;;;7.83;;
12623;SDS011;6377;42.836;23.998;2022-11-15T12:09:58;9.60;;;7.33;;
12623;SDS011;6377;42.836;23.998;2022-11-15T12:12:31;10.40;;;7.23;;
12623;SDS011;6377;42.836;23.998;2022-11-15T12:15:12;12.47;;;9.47;;
12623;SDS011;6377;42.836;23.998;2022-11-15T12:17:42;8.83;;;7.27;;
12623;SDS011;6377;42.836;23.998;2022-11-15T12:20:15;8.97;;;7.33;;
12623;SDS011;6377;42.836;23.998;2022-11-15T12:22:46;8.00;;;6.23;;
12623;SDS011;6377;42.836;23.998;2022-11-15T12:25:21;7.23;;;5.93;;
12623;SDS011;6377;42.836;23.998;2022-11-15T12:27:54;7.77;;;5.87;;
12623;SDS011;6377;42.836;23.998;2022-11-15T12:30:25;10.37;;;6.57;;
12623;SDS011;6377;42.836;23.998;2022-11-15T12:33:03;7.67;;;6.27;;
12623;SDS011;6377;42.836;23.998;2022-11-15T12:35:32;9.30;;;6.30;;
12623;SDS011;6377;42.836;23.998;2022-11-15T12:38:04;8.20;;;6.23;;
12623;SDS011;6377;42.836;23.998;2022-11-15T12:40:36;9.27;;;7.27;;
12623;SDS011;6377;42.836;23.998;2022-11-15T12:46:10;11.87;;;8.97;;
12623;SDS011;6377;42.836;23.998;2022-11-15T12:57:29;8.93;;;7.10;;
12623;SDS011;6377;42.836;23.998;2022-11-15T12:59:58;9.73;;;6.83;;
12623;SDS011;6377;42.836;23.998;2022-11-15T13:02:31;13.07;;;8.77;;
12623;SDS011;6377;42.836;23.998;2022-11-15T13:08:06;10.10;;;8.27;;
12623;SDS011;6377;42.836;23.998;2022-11-15T13:10:34;13.33;;;9.17;;
12623;SDS011;6377;42.836;23.998;2022-11-15T13:13:02;11.57;;;7.83;;
12623;SDS011;6377;42.836;23.998;2022-11-15T13:15:31;9.60;;;6.63;;
12623;SDS011;6377;42.836;23.998;2022-11-15T13:18:27;10.93;;;9.20;;
12623;SDS011;6377;42.836;23.998;2022-11-15T13:20:57;10.93;;;8.33;;
12623;SDS011;6377;42.836;23.998;2022-11-15T13:23:25;13.90;;;8.00;;
12623;SDS011;6377;42.836;23.998;2022-11-15T13:26:01;11.03;;;9.20;;
12623;SDS011;6377;42.836;23.998;2022-11-15T13:28:36;13.47;;;10.40;;
12623;SDS011;6377;42.836;23.998;2022-11-15T13:31:16;9.23;;;7.57;;
12623;SDS011;6377;42.836;23.998;2022-11-15T13:33:51;13.20;;;8.47;;
12623;SDS011;6377;42.836;23.998;2022-11-15T13:36:21;13.07;;;9.20;;
12623;SDS011;6377;42.836;23.998;2022-11-15T13:38:56;13.77;;;8.67;;
12623;SDS011;6377;42.836;23.998;2022-11-15T13:41:25;12.60;;;9.23;;
12623;SDS011;6377;42.836;23.998;2022-11-15T13:43:54;25.27;;;18.20;;
12623;SDS011;6377;42.836;23.998;2022-11-15T13:46:23;58.77;;;39.50;;
12623;SDS011;6377;42.836;23.998;2022-11-15T13:48:54;20.63;;;14.80;;
12623;SDS011;6377;42.836;23.998;2022-11-15T13:51:28;24.87;;;19.63;;
12623;SDS011;6377;42.836;23.998;2022-11-15T13:54:01;16.90;;;13.50;;
12623;SDS011;6377;42.836;23.998;2022-11-15T13:56:34;21.07;;;16.07;;
12623;SDS011;6377;42.836;23.998;2022-11-15T13:59:07;17.77;;;14.00;;
12623;SDS011;6377;42.836;23.998;2022-11-15T14:01:36;13.07;;;9.57;;
12623;SDS011;6377;42.836;23.998;2022-11-15T14:04:05;17.97;;;13.50;;
12623;SDS011;6377;42.836;23.998;2022-11-15T14:06:33;22.03;;;17.43;;
12623;SDS011;6377;42.836;23.998;2022-11-15T14:09:28;25.03;;;19.40;;
12623;SDS011;6377;42.836;23.998;2022-11-15T14:12:01;23.13;;;16.83;;
12623;SDS011;6377;42.836;23.998;2022-11-15T14:14:48;29.57;;;20.60;;
12623;SDS011;6377;42.836;23.998;2022-11-15T14:17:17;22.27;;;14.90;;
12623;SDS011;6377;42.836;23.998;2022-11-15T14:19:50;28.53;;;18.57;;
12623;SDS011;6377;42.836;23.998;2022-11-15T14:22:18;21.23;;;14.30;;
12623;SDS011;6377;42.836;23.998;2022-11-15T14:30:40;28.33;;;19.63;;
12623;SDS011;6377;42.836;23.998;2022-11-15T14:33:22;27.00;;;17.50;;
12623;SDS011;6377;42.836;23.998;2022-11-15T14:35:55;27.87;;;18.60;;
12623;SDS011;6377;42.836;23.998;2022-11-15T14:38:23;26.23;;;20.27;;
12623;SDS011;6377;42.836;23.998;2022-11-15T14:40:51;30.00;;;20.73;;
12623;SDS011;6377;42.836;23.998;2022-11-15T14:43:21;26.43;;;19.33;;
12623;SDS011;6377;42.836;23.998;2022-11-15T14:45:48;26.53;;;17.23;;
12623;SDS011;6377;42.836;23.998;2022-11-15T14:48:15;24.53;;;15.30;;
12623;SDS011;6377;42.836;23.998;2022-11-15T14:50:42;24.87;;;15.17;;
12623;SDS011;6377;42.836;23.998;2022-11-15T14:53:13;22.63;;;15.17;;
12623;SDS011;6377;42.836;23.998;2022-11-15T14:55:42;22.40;;;13.80;;
12623;SDS011;6377;42.836;23.998;2022-11-15T14:58:10;32.17;;;18.37;;
12623;SDS011;6377;42.836;23.998;2022-11-15T15:00:37;23.93;;;17.40;;
12623;SDS011;6377;42.836;23.998;2022-11-15T15:03:06;32.43;;;20.60;;
12623;SDS011;6377;42.836;23.998;2022-11-15T15:05:34;29.00;;;17.87;;
12623;SDS011;6377;42.836;23.998;2022-11-15T15:08:03;25.70;;;16.30;;
12623;SDS011;6377;42.836;23.998;2022-11-15T15:10:32;45.57;;;28.70;;
12623;SDS011;6377;42.836;23.998;2022-11-15T15:13:02;32.57;;;19.30;;
12623;SDS011;6377;42.836;23.998;2022-11-15T15:15:31;38.17;;;24.73;;
12623;SDS011;6377;42.836;23.998;2022-11-15T15:18:00;36.77;;;23.13;;
12623;SDS011;6377;42.836;23.998;2022-11-15T15:20:28;50.87;;;32.47;;
12623;SDS011;6377;42.836;23.998;2022-11-15T15:22:55;50.70;;;32.27;;
12623;SDS011;6377;42.836;23.998;2022-11-15T15:25:23;28.90;;;20.73;;
12623;SDS011;6377;42.836;23.998;2022-11-15T15:27:55;42.47;;;28.60;;
12623;SDS011;6377;42.836;23.998;2022-11-15T15:30:22;37.87;;;26.20;;
12623;SDS011;6377;42.836;23.998;2022-11-15T15:32:50;46.30;;;26.03;;
12623;SDS011;6377;42.836;23.998;2022-11-15T15:35:18;40.57;;;24.53;;
12623;SDS011;6377;42.836;23.998;2022-11-15T15:37:45;36.07;;;22.47;;
12623;SDS011;6377;42.836;23.998;2022-11-15T15:40:14;44.60;;;29.23;;
12623;SDS011;6377;42.836;23.998;2022-11-15T15:42:43;71.47;;;38.33;;
12623;SDS011;6377;42.836;23.998;2022-11-15T15:45:12;55.00;;;37.30;;
12623;SDS011;6377;42.836;23.998;2022-11-15T15:47:40;81.27;;;48.73;;
12623;SDS011;6377;42.836;23.998;2022-11-15T15:50:17;118.97;;;66.30;;
12623;SDS011;6377;42.836;23.998;2022-11-15T15:52:48;135.87;;;74.27;;
12623;SDS011;6377;42.836;23.998;2022-11-15T15:55:15;190.87;;;96.83;;
12623;SDS011;6377;42.836;23.998;2022-11-15T15:57:43;206.37;;;102.63;;
12623;SDS011;6377;42.836;23.998;2022-11-15T16:00:13;154.00;;;82.67;;
12623;SDS011;6377;42.836;23.998;2022-11-15T16:02:40;114.40;;;64.37;;
12623;SDS011;6377;42.836;23.998;2022-11-15T16:05:08;107.10;;;64.60;;
12623;SDS011;6377;42.836;23.998;2022-11-15T16:07:36;71.40;;;50.17;;
12623;SDS011;6377;42.836;23.998;2022-11-15T16:10:12;68.37;;;47.60;;
12623;SDS011;6377;42.836;23.998;2022-11-15T16:12:45;115.90;;;63.60;;
12623;SDS011;6377;42.836;23.998;2022-11-15T16:15:14;374.80;;;165.00;;
12623;SDS011;6377;42.836;23.998;2022-11-15T16:17:43;480.17;;;189.13;;
12623;SDS011;6377;42.836;23.998;2022-11-15T16:20:19;316.40;;;124.03;;
12623;SDS011;6377;42.836;23.998;2022-11-15T16:22:50;304.70;;;145.10;;
12623;SDS011;6377;42.836;23.998;2022-11-15T16:25:17;502.50;;;226.13;;
12623;SDS011;6377;42.836;23.998;2022-11-15T16:27:44;131.90;;;69.47;;
12623;SDS011;6377;42.836;23.998;2022-11-15T16:30:12;83.50;;;54.70;;
12623;SDS011;6377;42.836;23.998;2022-11-15T16:32:43;56.97;;;37.47;;
12623;SDS011;6377;42.836;23.998;2022-11-15T16:35:10;50.07;;;33.97;;
12623;SDS011;6377;42.836;23.998;2022-11-15T16:37:38;40.83;;;28.00;;
12623;SDS011;6377;42.836;23.998;2022-11-15T16:40:09;43.17;;;29.50;;
12623;SDS011;6377;42.836;23.998;2022-11-15T16:42:46;83.77;;;53.90;;
12623;SDS011;6377;42.836;23.998;2022-11-15T16:45:15;80.33;;;50.30;;
12623;SDS011;6377;42.836;23.998;2022-11-15T16:47:42;55.13;;;34.03;;
12623;SDS011;6377;42.836;23.998;2022-11-15T16:50:11;46.33;;;30.50;;
12623;SDS011;6377;42.836;23.998;2022-11-15T16:52:48;43.90;;;28.87;;
12623;SDS011;6377;42.836;23.998;2022-11-15T16:55:17;42.27;;;28.20;;
12623;SDS011;6377;42.836;23.998;2022-11-15T16:57:44;45.07;;;28.93;;
12623;SDS011;6377;42.836;23.998;2022-11-15T17:00:12;41.40;;;28.43;;
12623;SDS011;6377;42.836;23.998;2022-11-15T17:02:45;40.73;;;26.97;;
12623;SDS011;6377;42.836;23.998;2022-11-15T17:05:14;39.57;;;26.47;;
12623;SDS011;6377;42.836;23.998;2022-11-15T17:07:42;39.80;;;26.70;;
12623;SDS011;6377;42.836;23.998;2022-11-15T17:10:13;33.80;;;21.37;;
12623;SDS011;6377;42.836;23.998;2022-11-15T17:12:43;35.17;;;22.93;;
12623;SDS011;6377;42.836;23.998;2022-11-15T17:15:10;34.40;;;21.83;;
12623;SDS011;6377;42.836;23.998;2022-11-15T17:17:38;41.17;;;25.90;;
12623;SDS011;6377;42.836;23.998;2022-11-15T17:20:09;68.10;;;43.80;;
12623;SDS011;6377;42.836;23.998;2022-11-15T17:22:40;46.30;;;26.37;;
12623;SDS011;6377;42.836;23.998;2022-11-15T17:25:08;43.47;;;27.60;;
12623;SDS011;6377;42.836;23.998;2022-11-15T17:27:36;48.93;;;32.43;;
12623;SDS011;6377;42.836;23.998;2022-11-15T17:30:04;53.27;;;35.10;;
12623;SDS011;6377;42.836;23.998;2022-11-15T17:32:34;44.47;;;25.27;;
12623;SDS011;6377;42.836;23.998;2022-11-15T17:35:02;60.97;;;37.80;;
12623;SDS011;6377;42.836;23.998;2022-11-15T17:37:32;57.83;;;37.63;;
12623;SDS011;6377;42.836;23.998;2022-11-15T17:40:00;49.17;;;31.80;;
12623;SDS011;6377;42.836;23.998;2022-11-15T17:42:28;39.60;;;24.90;;
12623;SDS011;6377;42.836;23.998;2022-11-15T17:44:55;39.53;;;23.90;;
12623;SDS011;6377;42.836;23.998;2022-11-15T17:47:22;68.90;;;44.30;;
12623;SDS011;6377;42.836;23.998;2022-11-15T17:49:49;83.50;;;51.47;;
12623;SDS011;6377;42.836;23.998;2022-11-15T17:52:16;63.53;;;40.83;;
12623;SDS011;6377;42.836;23.998;2022-11-15T17:54:45;59.73;;;38.13;;
12623;SDS011;6377;42.836;23.998;2022-11-15T17:57:12;62.77;;;40.37;;
12623;SDS011;6377;42.836;23.998;2022-11-15T17:59:39;57.27;;;36.93;;
12623;SDS011;6377;42.836;23.998;2022-11-15T18:02:07;48.80;;;33.23;;
12623;SDS011;6377;42.836;23.998;2022-11-15T18:04:35;53.97;;;34.20;;
12623;SDS011;6377;42.836;23.998;2022-11-15T18:07:02;50.30;;;29.80;;
12623;SDS011;6377;42.836;23.998;2022-11-15T18:09:29;61.43;;;35.77;;
12623;SDS011;6377;42.836;23.998;2022-11-15T18:11:58;56.23;;;33.53;;
12623;SDS011;6377;42.836;23.998;2022-11-15T18:14:25;45.47;;;26.90;;
12623;SDS011;6377;42.836;23.998;2022-11-15T18:16:52;48.20;;;29.70;;
12623;SDS011;6377;42.836;23.998;2022-11-15T18:19:19;41.23;;;25.10;;
12623;SDS011;6377;42.836;23.998;2022-11-15T18:21:47;47.13;;;28.67;;
12623;SDS011;6377;42.836;23.998;2022-11-15T18:24:25;64.03;;;37.67;;
12623;SDS011;6377;42.836;23.998;2022-11-15T18:26:53;49.50;;;28.30;;
12623;SDS011;6377;42.836;23.998;2022-11-15T18:29:22;59.00;;;31.57;;
12623;SDS011;6377;42.836;23.998;2022-11-15T18:31:50;48.87;;;27.60;;
12623;SDS011;6377;42.836;23.998;2022-11-15T18:34:19;48.80;;;24.40;;
12623;SDS011;6377;42.836;23.998;2022-11-15T18:36:48;43.97;;;24.80;;
12623;SDS011;6377;42.836;23.998;2022-11-15T18:39:16;47.90;;;26.47;;
12623;SDS011;6377;42.836;23.998;2022-11-15T18:41:43;62.37;;;37.27;;
12623;SDS011;6377;42.836;23.998;2022-11-15T18:44:12;52.93;;;28.80;;
12623;SDS011;6377;42.836;23.998;2022-11-15T18:46:41;52.93;;;28.93;;
12623;SDS011;6377;42.836;23.998;2022-11-15T18:49:10;49.90;;;29.23;;
12623;SDS011;6377;42.836;23.998;2022-11-15T18:51:38;55.27;;;31.80;;
12623;SDS011;6377;42.836;23.998;2022-11-15T18:54:07;68.27;;;36.50;;
12623;SDS011;6377;42.836;23.998;2022-11-15T18:56:36;90.07;;;49.63;;
12623;SDS011;6377;42.836;23.998;2022-11-15T18:59:03;92.83;;;50.50;;
12623;SDS011;6377;42.836;23.998;2022-11-15T19:01:32;175.50;;;103.47;;
12623;SDS011;6377;42.836;23.998;2022-11-15T19:04:03;69.20;;;41.87;;
12623;SDS011;6377;42.836;23.998;2022-11-15T19:06:32;68.03;;;41.50;;
12623;SDS011;6377;42.836;23.998;2022-11-15T19:09:03;69.50;;;41.27;;
12623;SDS011;6377;42.836;23.998;2022-11-15T19:11:31;72.23;;;41.83;;
12623;SDS011;6377;42.836;23.998;2022-11-15T19:14:00;117.93;;;65.00;;
12623;SDS011;6377;42.836;23.998;2022-11-15T19:16:29;63.03;;;35.93;;
12623;SDS011;6377;42.836;23.998;2022-11-15T19:19:00;63.40;;;38.20;;
12623;SDS011;6377;42.836;23.998;2022-11-15T19:21:29;111.83;;;58.00;;
12623;SDS011;6377;42.836;23.998;2022-11-15T19:23:57;72.57;;;40.33;;
12623;SDS011;6377;42.836;23.998;2022-11-15T19:26:26;90.77;;;49.53;;
12623;SDS011;6377;42.836;23.998;2022-11-15T19:28:54;52.87;;;32.77;;
12623;SDS011;6377;42.836;23.998;2022-11-15T19:31:22;60.13;;;35.57;;
12623;SDS011;6377;42.836;23.998;2022-11-15T19:33:50;55.20;;;35.77;;
12623;SDS011;6377;42.836;23.998;2022-11-15T19:36:20;46.77;;;30.87;;
12623;SDS011;6377;42.836;23.998;2022-11-15T19:38:50;50.00;;;37.40;;
12623;SDS011;6377;42.836;23.998;2022-11-15T19:41:17;114.43;;;65.53;;
12623;SDS011;6377;42.836;23.998;2022-11-15T19:43:45;54.87;;;38.17;;
12623;SDS011;6377;42.836;23.998;2022-11-15T19:46:15;47.50;;;32.47;;
12623;SDS011;6377;42.836;23.998;2022-11-15T19:48:44;65.57;;;43.07;;
12623;SDS011;6377;42.836;23.998;2022-11-15T19:51:12;53.47;;;33.53;;
12623;SDS011;6377;42.836;23.998;2022-11-15T19:53:40;49.00;;;31.33;;
12623;SDS011;6377;42.836;23.998;2022-11-15T19:56:10;55.07;;;31.87;;
12623;SDS011;6377;42.836;23.998;2022-11-15T19:58:39;54.90;;;33.40;;
12623;SDS011;6377;42.836;23.998;2022-11-15T20:01:07;57.23;;;34.70;;
12623;SDS011;6377;42.836;23.998;2022-11-15T20:03:43;57.37;;;35.57;;
12623;SDS011;6377;42.836;23.998;2022-11-15T20:06:12;66.60;;;38.00;;
12623;SDS011;6377;42.836;23.998;2022-11-15T20:08:42;81.37;;;44.53;;
12623;SDS011;6377;42.836;23.998;2022-11-15T20:11:11;65.23;;;38.03;;
12623;SDS011;6377;42.836;23.998;2022-11-15T20:13:40;56.97;;;37.63;;
12623;SDS011;6377;42.836;23.998;2022-11-15T20:16:08;53.07;;;34.00;;
12623;SDS011;6377;42.836;23.998;2022-11-15T20:18:41;72.27;;;42.67;;
12623;SDS011;6377;42.836;23.998;2022-11-15T20:21:08;62.87;;;38.97;;
12623;SDS011;6377;42.836;23.998;2022-11-15T20:23:35;62.83;;;38.03;;
12623;SDS011;6377;42.836;23.998;2022-11-15T20:26:03;66.57;;;40.83;;
12623;SDS011;6377;42.836;23.998;2022-11-15T20:28:32;58.83;;;37.93;;
12623;SDS011;6377;42.836;23.998;2022-11-15T20:31:01;80.70;;;48.60;;
12623;SDS011;6377;42.836;23.998;2022-11-15T20:33:28;78.90;;;48.47;;
12623;SDS011;6377;42.836;23.998;2022-11-15T20:35:55;74.60;;;45.73;;
12623;SDS011;6377;42.836;23.998;2022-11-15T20:38:22;76.77;;;46.70;;
12623;SDS011;6377;42.836;23.998;2022-11-15T20:40:50;98.67;;;56.20;;
12623;SDS011;6377;42.836;23.998;2022-11-15T20:43:17;101.47;;;57.00;;
12623;SDS011;6377;42.836;23.998;2022-11-15T20:45:47;99.97;;;58.73;;
12623;SDS011;6377;42.836;23.998;2022-11-15T20:48:15;167.07;;;93.10;;
12623;SDS011;6377;42.836;23.998;2022-11-15T20:50:43;96.50;;;51.60;;
12623;SDS011;6377;42.836;23.998;2022-11-15T20:53:11;78.60;;;44.40;;
12623;SDS011;6377;42.836;23.998;2022-11-15T20:55:39;99.43;;;52.73;;
12623;SDS011;6377;42.836;23.998;2022-11-15T20:58:07;95.90;;;51.43;;
12623;SDS011;6377;42.836;23.998;2022-11-15T21:00:35;93.00;;;52.00;;
12623;SDS011;6377;42.836;23.998;2022-11-15T21:03:04;96.67;;;51.23;;
12623;SDS011;6377;42.836;23.998;2022-11-15T21:05:32;88.93;;;49.60;;
12623;SDS011;6377;42.836;23.998;2022-11-15T21:07:59;105.47;;;55.80;;
12623;SDS011;6377;42.836;23.998;2022-11-15T21:10:27;112.03;;;57.87;;
12623;SDS011;6377;42.836;23.998;2022-11-15T21:13:12;97.33;;;53.37;;
12623;SDS011;6377;42.836;23.998;2022-11-15T21:15:39;83.30;;;50.63;;
12623;SDS011;6377;42.836;23.998;2022-11-15T21:18:07;71.20;;;43.43;;
12623;SDS011;6377;42.836;23.998;2022-11-15T21:20:34;78.67;;;46.23;;
12623;SDS011;6377;42.836;23.998;2022-11-15T21:23:02;90.07;;;54.93;;
12623;SDS011;6377;42.836;23.998;2022-11-15T21:25:29;69.50;;;41.77;;
12623;SDS011;6377;42.836;23.998;2022-11-15T21:27:56;62.90;;;39.13;;
12623;SDS011;6377;42.836;23.998;2022-11-15T21:30:23;70.17;;;41.20;;
12623;SDS011;6377;42.836;23.998;2022-11-15T21:32:50;53.03;;;31.87;;
12623;SDS011;6377;42.836;23.998;2022-11-15T21:35:18;53.67;;;32.77;;
12623;SDS011;6377;42.836;23.998;2022-11-15T21:37:46;57.93;;;35.10;;
12623;SDS011;6377;42.836;23.998;2022-11-15T21:40:14;87.50;;;49.97;;
12623;SDS011;6377;42.836;23.998;2022-11-15T21:42:41;65.13;;;39.27;;
12623;SDS011;6377;42.836;23.998;2022-11-15T21:45:09;75.00;;;47.20;;
12623;SDS011;6377;42.836;23.998;2022-11-15T21:47:36;85.97;;;51.37;;
12623;SDS011;6377;42.836;23.998;2022-11-15T21:50:04;87.67;;;52.53;;
12623;SDS011;6377;42.836;23.998;2022-11-15T21:52:33;106.40;;;59.93;;
12623;SDS011;6377;42.836;23.998;2022-11-15T21:55:00;121.07;;;69.47;;
12623;SDS011;6377;42.836;23.998;2022-11-15T21:57:27;144.27;;;74.73;;
12623;SDS011;6377;42.836;23.998;2022-11-15T21:59:55;103.17;;;57.73;;
12623;SDS011;6377;42.836;23.998;2022-11-15T22:02:39;81.27;;;48.00;;
12623;SDS011;6377;42.836;23.998;2022-11-15T22:05:06;76.00;;;44.50;;
12623;SDS011;6377;42.836;23.998;2022-11-15T22:07:35;76.57;;;46.63;;
12623;SDS011;6377;42.836;23.998;2022-11-15T22:10:03;86.67;;;50.63;;
12623;SDS011;6377;42.836;23.998;2022-11-15T22:12:31;92.37;;;54.43;;
12623;SDS011;6377;42.836;23.998;2022-11-15T22:14:58;98.53;;;55.47;;
12623;SDS011;6377;42.836;23.998;2022-11-15T22:17:25;90.30;;;51.83;;
12623;SDS011;6377;42.836;23.998;2022-11-15T22:20:12;96.73;;;55.00;;
12623;SDS011;6377;42.836;23.998;2022-11-15T22:22:41;89.73;;;54.33;;
12623;SDS011;6377;42.836;23.998;2022-11-15T22:25:10;81.47;;;50.20;;
12623;SDS011;6377;42.836;23.998;2022-11-15T22:27:37;84.33;;;52.03;;
12623;SDS011;6377;42.836;23.998;2022-11-15T22:30:04;98.83;;;55.27;;
12623;SDS011;6377;42.836;23.998;2022-11-15T22:32:32;95.93;;;53.17;;
12623;SDS011;6377;42.836;23.998;2022-11-15T22:34:59;122.70;;;71.83;;
12623;SDS011;6377;42.836;23.998;2022-11-15T22:37:26;89.13;;;54.40;;
12623;SDS011;6377;42.836;23.998;2022-11-15T22:39:55;104.60;;;61.03;;
12623;SDS011;6377;42.836;23.998;2022-11-15T22:42:22;85.03;;;50.67;;
12623;SDS011;6377;42.836;23.998;2022-11-15T22:44:49;99.07;;;56.00;;
12623;SDS011;6377;42.836;23.998;2022-11-15T22:47:16;93.53;;;53.40;;
12623;SDS011;6377;42.836;23.998;2022-11-15T22:49:43;99.63;;;54.63;;
12623;SDS011;6377;42.836;23.998;2022-11-15T22:52:11;79.33;;;45.60;;
12623;SDS011;6377;42.836;23.998;2022-11-15T22:54:38;58.90;;;36.87;;
12623;SDS011;6377;42.836;23.998;2022-11-15T22:57:06;52.37;;;31.07;;
12623;SDS011;6377;42.836;23.998;2022-11-15T22:59:33;44.87;;;27.07;;
12623;SDS011;6377;42.836;23.998;2022-11-15T23:02:01;41.03;;;24.47;;
12623;SDS011;6377;42.836;23.998;2022-11-15T23:04:29;41.40;;;26.30;;
12623;SDS011;6377;42.836;23.998;2022-11-15T23:06:56;54.43;;;31.63;;
12623;SDS011;6377;42.836;23.998;2022-11-15T23:09:23;64.23;;;39.77;;
12623;SDS011;6377;42.836;23.998;2022-11-15T23:11:50;62.57;;;39.73;;
12623;SDS011;6377;42.836;23.998;2022-11-15T23:14:36;61.57;;;37.90;;
12623;SDS011;6377;42.836;23.998;2022-11-15T23:17:03;57.77;;;36.50;;
12623;SDS011;6377;42.836;23.998;2022-11-15T23:19:30;56.17;;;35.57;;
12623;SDS011;6377;42.836;23.998;2022-11-15T23:21:58;58.83;;;35.23;;
12623;SDS011;6377;42.836;23.998;2022-11-15T23:24:42;67.77;;;40.87;;
12623;SDS011;6377;42.836;23.998;2022-11-15T23:27:09;80.20;;;46.77;;
12623;SDS011;6377;42.836;23.998;2022-11-15T23:29:41;91.60;;;53.13;;
12623;SDS011;6377;42.836;23.998;2022-11-15T23:32:25;204.37;;;107.50;;
12623;SDS011;6377;42.836;23.998;2022-11-15T23:35:09;172.30;;;91.63;;
12623;SDS011;6377;42.836;23.998;2022-11-15T23:37:37;133.60;;;71.93;;
12623;SDS011;6377;42.836;23.998;2022-11-15T23:40:04;101.50;;;59.20;;
12623;SDS011;6377;42.836;23.998;2022-11-15T23:42:32;96.47;;;54.77;;
12623;SDS011;6377;42.836;23.998;2022-11-15T23:45:01;110.10;;;61.37;;
12623;SDS011;6377;42.836;23.998;2022-11-15T23:47:28;99.90;;;59.40;;
12623;SDS011;6377;42.836;23.998;2022-11-15T23:49:55;100.33;;;60.10;;
12623;SDS011;6377;42.836;23.998;2022-11-15T23:52:23;97.43;;;55.97;;
12623;SDS011;6377;42.836;23.998;2022-11-15T23:54:50;84.23;;;48.37;;
12623;SDS011;6377;42.836;23.998;2022-11-15T23:57:17;80.13;;;46.73;;
12623;SDS011;6377;42.836;23.998;2022-11-15T23:59:45;69.67;;;40.93;;
